createdAt,value
2016-05-18T00:00:43.447Z,0
2016-05-18T00:01:43.386Z,0
2016-05-18T00:02:43.109Z,0
2016-05-18T00:03:43.252Z,0
2016-05-18T00:04:43.489Z,0
2016-05-18T00:05:43.461Z,0
2016-05-18T00:06:43.338Z,0
2016-05-18T00:07:43.966Z,0
2016-05-18T00:08:43.546Z,0
2016-05-18T00:09:43.518Z,0
2016-05-18T00:10:43.552Z,0
2016-05-18T00:11:43.430Z,0
2016-05-18T00:12:43.588Z,0
2016-05-18T00:13:43.607Z,0
2016-05-18T00:14:43.657Z,0
2016-05-18T00:15:43.487Z,0
2016-05-18T00:16:43.646Z,0
2016-05-18T00:17:43.509Z,0
2016-05-18T00:18:43.574Z,0
2016-05-18T00:19:43.545Z,0
2016-05-18T00:20:43.579Z,0
2016-05-18T00:21:43.737Z,0
2016-05-18T00:22:44.381Z,0
2016-05-18T00:23:43.790Z,0
2016-05-18T00:24:43.652Z,0
2016-05-18T00:25:43.827Z,0
2016-05-18T00:26:43.376Z,0
2016-05-18T00:27:43.847Z,0
2016-05-18T00:28:43.866Z,0
2016-05-18T00:29:43.572Z,0
2016-05-18T00:30:43.622Z,0
2016-05-18T00:31:43.921Z,0
2016-05-18T00:32:43.628Z,0
2016-05-18T00:33:43.661Z,0
2016-05-18T00:34:43.975Z,0
2016-05-18T00:35:44.010Z,0
2016-05-18T00:36:44.013Z,0
2016-05-18T00:37:43.890Z,0
2016-05-18T00:38:43.909Z,0
2016-05-18T00:39:44.068Z,0
2016-05-18T00:40:44.070Z,0
2016-05-18T00:41:44.105Z,0
2016-05-18T00:42:43.966Z,0
2016-05-18T00:43:44.124Z,0
2016-05-18T00:44:44.019Z,0
2016-05-18T00:45:44.021Z,0
2016-05-18T00:46:44.024Z,0
2016-05-18T00:47:44.214Z,0
2016-05-18T00:48:44.232Z,0
2016-05-18T00:49:44.234Z,0
2016-05-18T00:50:43.957Z,0
2016-05-18T00:51:44.271Z,0
2016-05-18T00:52:44.181Z,0
2016-05-18T00:53:44.340Z,0
2016-05-18T00:54:44.326Z,0
2016-05-18T00:55:44.329Z,0
2016-05-18T00:56:44.363Z,0
2016-05-18T00:57:44.381Z,0
2016-05-18T00:58:44.462Z,0
2016-05-18T00:59:44.278Z,0
2016-05-18T01:00:44.327Z,0
2016-05-18T01:01:44.455Z,0
2016-05-18T01:02:44.176Z,0
2016-05-18T01:03:44.507Z,0
2016-05-18T01:04:44.338Z,0
2016-05-18T01:05:44.372Z,0
2016-05-18T01:06:44.594Z,0
2016-05-18T01:07:44.549Z,0
2016-05-18T01:08:44.583Z,0
2016-05-18T01:09:44.602Z,0
2016-05-18T01:10:44.604Z,0
2016-05-18T01:11:44.450Z,0
2016-05-18T01:12:44.656Z,0
2016-05-18T01:13:44.660Z,0
2016-05-18T01:14:44.505Z,0
2016-05-18T01:15:44.398Z,0
2016-05-18T01:16:44.698Z,0
2016-05-18T01:17:44.732Z,0
2016-05-18T01:18:44.423Z,0
2016-05-18T01:19:44.612Z,0
2016-05-18T01:20:44.616Z,0
2016-05-18T01:21:44.634Z,0
2016-05-18T01:22:44.668Z,0
2016-05-18T01:23:44.857Z,0
2016-05-18T01:24:44.844Z,0
2016-05-18T01:25:44.707Z,0
2016-05-18T01:26:44.740Z,0
2016-05-18T01:27:44.900Z,0
2016-05-18T01:28:44.934Z,0
2016-05-18T01:29:44.795Z,0
2016-05-18T01:30:44.658Z,0
2016-05-18T01:31:44.660Z,0
2016-05-18T01:32:44.679Z,0
2016-05-18T01:33:45.009Z,0
2016-05-18T01:34:44.887Z,0
2016-05-18T01:35:44.889Z,0
2016-05-18T01:36:44.892Z,0
2016-05-18T01:37:45.224Z,0
2016-05-18T01:38:44.929Z,0
2016-05-18T01:39:45.119Z,0
2016-05-18T01:40:45.122Z,0
2016-05-18T01:41:45.125Z,0
2016-05-18T01:42:45.127Z,0
2016-05-18T01:43:45.193Z,0
2016-05-18T01:44:45.211Z,0
2016-05-18T01:45:45.213Z,0
2016-05-18T01:46:45.060Z,0
2016-05-18T01:47:45.266Z,0
2016-05-18T01:48:45.097Z,0
2016-05-18T01:49:45.131Z,0
2016-05-18T01:50:45.149Z,0
2016-05-18T01:51:44.995Z,0
2016-05-18T01:52:45.232Z,0
2016-05-18T01:53:45.329Z,0
2016-05-18T01:54:45.222Z,0
2016-05-18T01:55:45.365Z,0
2016-05-18T01:56:45.384Z,0
2016-05-18T01:57:45.418Z,0
2016-05-18T01:58:45.436Z,0
2016-05-18T01:59:45.454Z,0
2016-05-18T02:00:45.489Z,0
2016-05-18T02:01:45.350Z,0
2016-05-18T02:02:45.338Z,0
2016-05-18T02:03:45.528Z,0
2016-05-18T02:04:45.389Z,0
2016-05-18T02:05:45.549Z,0
2016-05-18T02:06:45.427Z,0
2016-05-18T02:07:45.694Z,0
2016-05-18T02:08:45.603Z,0
2016-05-18T02:09:45.653Z,0
2016-05-18T02:10:45.655Z,0
2016-05-18T02:11:45.675Z,0
2016-05-18T02:12:45.521Z,0
2016-05-18T02:13:45.695Z,0
2016-05-18T02:14:45.730Z,0
2016-05-18T02:15:45.732Z,0
2016-05-18T02:16:45.579Z,0
2016-05-18T02:17:45.596Z,0
2016-05-18T02:18:45.802Z,0
2016-05-18T02:19:45.758Z,0
2016-05-18T02:20:45.839Z,0
2016-05-18T02:21:45.842Z,0
2016-05-18T02:22:45.907Z,0
2016-05-18T02:23:45.707Z,0
2016-05-18T02:24:45.881Z,0
2016-05-18T02:25:45.899Z,0
2016-05-18T02:26:45.902Z,0
2016-05-18T02:27:45.951Z,0
2016-05-18T02:28:45.814Z,0
2016-05-18T02:29:45.816Z,0
2016-05-18T02:30:45.851Z,0
2016-05-18T02:31:45.994Z,0
2016-05-18T02:32:45.997Z,0
2016-05-18T02:33:45.889Z,0
2016-05-18T02:34:45.908Z,0
2016-05-18T02:35:46.067Z,0
2016-05-18T02:36:46.070Z,0
2016-05-18T02:37:46.103Z,0
2016-05-18T02:38:46.122Z,0
2016-05-18T02:39:45.984Z,0
2016-05-18T02:40:46.127Z,0
2016-05-18T02:41:46.005Z,0
2016-05-18T02:42:46.024Z,0
2016-05-18T02:43:46.197Z,0
2016-05-18T02:44:46.075Z,0
2016-05-18T02:45:46.093Z,0
2016-05-18T02:46:46.238Z,0
2016-05-18T02:47:46.271Z,0
2016-05-18T02:48:46.274Z,0
2016-05-18T02:49:46.292Z,0
2016-05-18T02:50:46.311Z,0
2016-05-18T02:51:46.329Z,0
2016-05-18T02:52:46.221Z,0
2016-05-18T02:53:46.382Z,0
2016-05-18T02:54:46.384Z,0
2016-05-18T02:55:46.261Z,0
2016-05-18T02:56:46.107Z,0
2016-05-18T02:57:46.423Z,0
2016-05-18T02:58:46.442Z,0
2016-05-18T02:59:46.334Z,0
2016-05-18T03:00:46.306Z,0
2016-05-18T03:01:46.496Z,0
2016-05-18T03:02:46.545Z,0
2016-05-18T03:03:46.392Z,0
2016-05-18T03:04:46.551Z,0
2016-05-18T03:05:46.570Z,0
2016-05-18T03:06:46.619Z,0
2016-05-18T03:07:46.434Z,0
2016-05-18T03:08:46.499Z,0
2016-05-18T03:09:46.502Z,0
2016-05-18T03:10:46.739Z,0
2016-05-18T03:11:46.663Z,0
2016-05-18T03:12:46.730Z,0
2016-05-18T03:13:46.716Z,0
2016-05-18T03:14:46.562Z,0
2016-05-18T03:15:46.737Z,0
2016-05-18T03:16:46.755Z,0
2016-05-18T03:17:46.774Z,0
2016-05-18T03:18:46.479Z,0
2016-05-18T03:19:46.655Z,0
2016-05-18T03:20:46.844Z,0
2016-05-18T03:21:46.831Z,0
2016-05-18T03:22:47.506Z,0
2016-05-18T03:23:46.851Z,0
2016-05-18T03:24:46.762Z,0
2016-05-18T03:25:46.764Z,0
2016-05-18T03:26:46.767Z,0
2016-05-18T03:27:46.941Z,0
2016-05-18T03:28:46.959Z,0
2016-05-18T03:29:46.806Z,0
2016-05-18T03:30:46.996Z,0
2016-05-18T03:31:46.859Z,0
2016-05-18T03:32:46.892Z,0
2016-05-18T03:33:47.036Z,0
2016-05-18T03:34:47.053Z,0
2016-05-18T03:35:46.947Z,5
2016-05-18T03:36:46.653Z,5
2016-05-18T03:37:46.967Z,5
2016-05-18T03:38:47.112Z,5
2016-05-18T03:39:47.129Z,5
2016-05-18T03:40:47.163Z,5
2016-05-18T03:41:47.182Z,5
2016-05-18T03:42:47.200Z,5
2016-05-18T03:43:47.203Z,5
2016-05-18T03:44:47.050Z,5
2016-05-18T03:45:47.068Z,5
2016-05-18T03:46:47.086Z,5
2016-05-18T03:47:47.136Z,5
2016-05-18T03:48:47.279Z,5
2016-05-18T03:49:47.297Z,10
2016-05-18T03:50:47.316Z,10
2016-05-18T03:51:47.037Z,10
2016-05-18T03:52:47.196Z,10
2016-05-18T03:53:47.401Z,10
2016-05-18T03:54:47.358Z,10
2016-05-18T03:55:47.251Z,10
2016-05-18T03:56:47.426Z,10
2016-05-18T03:57:47.272Z,10
2016-05-18T03:58:47.446Z,10
2016-05-18T03:59:47.481Z,10
2016-05-18T04:00:47.467Z,10
2016-05-18T04:01:47.329Z,15
2016-05-18T04:02:47.520Z,15
2016-05-18T04:03:47.570Z,15
2016-05-18T04:04:47.384Z,15
2016-05-18T04:05:47.575Z,15
2016-05-18T04:06:47.609Z,15
2016-05-18T04:07:47.783Z,15
2016-05-18T04:08:47.520Z,15
2016-05-18T04:09:47.726Z,15
2016-05-18T04:10:47.635Z,15
2016-05-18T04:11:47.684Z,20
2016-05-18T04:12:47.672Z,20
2016-05-18T04:13:47.737Z,20
2016-05-18T04:14:47.817Z,20
2016-05-18T04:15:47.570Z,20
2016-05-18T04:16:47.744Z,20
2016-05-18T04:17:47.794Z,20
2016-05-18T04:18:47.625Z,20
2016-05-18T04:19:47.815Z,20
2016-05-18T04:20:47.709Z,20
2016-05-18T04:21:47.711Z,20
2016-05-18T04:22:47.714Z,20
2016-05-18T04:23:47.560Z,20
2016-05-18T04:24:47.735Z,20
2016-05-18T04:25:47.910Z,20
2016-05-18T04:26:47.912Z,20
2016-05-18T04:27:47.760Z,20
2016-05-18T04:28:47.793Z,20
2016-05-18T04:29:47.982Z,20
2016-05-18T04:30:47.689Z,25
2016-05-18T04:31:48.019Z,25
2016-05-18T04:32:48.022Z,25
2016-05-18T04:33:47.868Z,25
2016-05-18T04:34:48.059Z,25
2016-05-18T04:35:48.078Z,25
2016-05-18T04:36:48.081Z,25
2016-05-18T04:37:48.114Z,25
2016-05-18T04:38:48.289Z,25
2016-05-18T04:39:48.151Z,25
2016-05-18T04:40:48.137Z,25
2016-05-18T04:41:48.203Z,25
2016-05-18T04:42:48.174Z,30
2016-05-18T04:43:48.208Z,30
2016-05-18T04:44:48.070Z,30
2016-05-18T04:45:48.261Z,30
2016-05-18T04:46:48.263Z,30
2016-05-18T04:47:48.266Z,30
2016-05-18T04:48:47.971Z,30
2016-05-18T04:49:48.302Z,30
2016-05-18T04:50:48.336Z,25
2016-05-18T04:51:48.324Z,25
2016-05-18T04:52:48.217Z,25
2016-05-18T04:53:48.641Z,30
2016-05-18T04:54:48.363Z,30
2016-05-18T04:55:48.099Z,30
2016-05-18T04:56:48.430Z,30
2016-05-18T04:57:48.464Z,30
2016-05-18T04:58:48.140Z,30
2016-05-18T04:59:48.313Z,35
2016-05-18T05:00:48.488Z,35
2016-05-18T05:01:48.523Z,35
2016-05-18T05:02:48.540Z,35
2016-05-18T05:03:48.371Z,35
2016-05-18T05:04:48.623Z,35
2016-05-18T05:05:48.579Z,40
2016-05-18T05:06:48.442Z,40
2016-05-18T05:07:48.631Z,40
2016-05-18T05:08:48.619Z,40
2016-05-18T05:09:48.638Z,40
2016-05-18T05:10:48.671Z,40
2016-05-18T05:11:48.689Z,40
2016-05-18T05:12:48.598Z,40
2016-05-18T05:13:48.617Z,40
2016-05-18T05:14:48.791Z,40
2016-05-18T05:15:48.810Z,40
2016-05-18T05:16:48.469Z,45
2016-05-18T05:17:48.800Z,45
2016-05-18T05:18:48.662Z,45
2016-05-18T05:19:48.852Z,45
2016-05-18T05:20:48.526Z,45
2016-05-18T05:21:48.716Z,45
2016-05-18T05:22:49.297Z,45
2016-05-18T05:23:49.253Z,45
2016-05-18T05:24:48.975Z,45
2016-05-18T05:25:48.774Z,45
2016-05-18T05:26:48.808Z,45
2016-05-18T05:27:48.842Z,45
2016-05-18T05:28:48.986Z,50
2016-05-18T05:29:48.691Z,50
2016-05-18T05:30:49.021Z,50
2016-05-18T05:31:49.040Z,50
2016-05-18T05:32:49.059Z,50
2016-05-18T05:33:49.062Z,50
2016-05-18T05:34:49.111Z,50
2016-05-18T05:35:49.114Z,55
2016-05-18T05:36:49.116Z,55
2016-05-18T05:37:49.776Z,55
2016-05-18T05:38:49.247Z,55
2016-05-18T05:39:49.156Z,55
2016-05-18T05:40:49.190Z,55
2016-05-18T05:41:49.223Z,55
2016-05-18T05:42:49.211Z,55
2016-05-18T05:43:49.260Z,55
2016-05-18T05:44:49.278Z,55
2016-05-18T05:45:49.281Z,55
2016-05-18T05:46:48.846Z,55
2016-05-18T05:47:49.333Z,55
2016-05-18T05:48:49.336Z,55
2016-05-18T05:49:49.354Z,55
2016-05-18T05:50:49.232Z,55
2016-05-18T05:51:49.375Z,60
2016-05-18T05:52:49.752Z,60
2016-05-18T05:53:49.771Z,60
2016-05-18T05:54:49.430Z,60
2016-05-18T05:55:49.464Z,60
2016-05-18T05:56:49.499Z,65
2016-05-18T05:57:49.486Z,65
2016-05-18T05:58:49.535Z,65
2016-05-18T05:59:49.365Z,65
2016-05-18T06:00:49.556Z,65
2016-05-18T06:01:49.574Z,65
2016-05-18T06:02:49.577Z,70
2016-05-18T06:03:49.626Z,70
2016-05-18T06:05:03.676Z,70
2016-05-18T06:05:49.491Z,70
2016-05-18T06:06:49.665Z,70
2016-05-18T06:07:50.059Z,70
2016-05-18T06:08:49.734Z,75
2016-05-18T06:09:49.705Z,75
2016-05-18T06:10:49.723Z,75
2016-05-18T06:11:49.773Z,75
2016-05-18T06:12:49.775Z,75
2016-05-18T06:13:49.497Z,80
2016-05-18T06:14:49.655Z,80
2016-05-18T06:15:49.533Z,80
2016-05-18T06:16:49.834Z,85
2016-05-18T06:17:49.727Z,85
2016-05-18T06:18:49.729Z,85
2016-05-18T06:19:49.903Z,90
2016-05-18T06:20:49.969Z,90
2016-05-18T06:21:49.956Z,90
2016-05-18T06:22:49.974Z,95
2016-05-18T06:23:49.993Z,95
2016-05-18T06:24:50.058Z,100
2016-05-18T06:25:49.857Z,100
2016-05-18T06:26:50.063Z,105
2016-05-18T06:27:50.066Z,105
2016-05-18T06:28:49.834Z,110
2016-05-18T06:29:50.071Z,110
2016-05-18T06:30:50.887Z,110
2016-05-18T06:31:50.123Z,110
2016-05-18T06:32:50.001Z,115
2016-05-18T06:33:50.160Z,120
2016-05-18T06:34:50.163Z,125
2016-05-18T06:35:50.197Z,130
2016-05-18T06:36:50.215Z,130
2016-05-18T06:37:50.124Z,130
2016-05-18T06:38:50.111Z,130
2016-05-18T06:39:50.114Z,135
2016-05-18T06:40:50.492Z,135
2016-05-18T06:41:50.338Z,135
2016-05-18T06:42:50.325Z,135
2016-05-18T06:43:50.327Z,135
2016-05-18T06:44:50.361Z,135
2016-05-18T06:45:50.536Z,135
2016-05-18T06:46:50.398Z,135
2016-05-18T06:47:50.432Z,135
2016-05-18T06:48:50.482Z,135
2016-05-18T06:49:50.313Z,135
2016-05-18T06:50:50.316Z,135
2016-05-18T06:51:50.365Z,135
2016-05-18T06:52:51.055Z,135
2016-05-18T06:53:50.527Z,135
2016-05-18T06:54:50.264Z,135
2016-05-18T06:55:51.063Z,135
2016-05-18T06:56:50.597Z,135
2016-05-18T06:57:50.460Z,135
2016-05-18T06:58:50.493Z,130
2016-05-18T06:59:50.668Z,130
2016-05-18T07:00:50.671Z,135
2016-05-18T07:01:50.704Z,135
2016-05-18T07:02:50.754Z,140
2016-05-18T07:03:50.804Z,140
2016-05-18T07:04:50.806Z,140
2016-05-18T07:05:50.809Z,140
2016-05-18T07:06:50.655Z,140
2016-05-18T07:07:50.845Z,135
2016-05-18T07:08:50.723Z,135
2016-05-18T07:09:50.867Z,135
2016-05-18T07:10:50.823Z,135
2016-05-18T07:11:50.981Z,135
2016-05-18T07:12:50.812Z,135
2016-05-18T07:13:51.064Z,130
2016-05-18T07:14:51.068Z,130
2016-05-18T07:15:51.117Z,130
2016-05-18T07:16:50.823Z,130
2016-05-18T07:17:51.044Z,130
2016-05-18T07:18:51.109Z,130
2016-05-18T07:19:51.159Z,130
2016-05-18T07:20:50.942Z,130
2016-05-18T07:21:51.117Z,135
2016-05-18T07:22:50.839Z,135
2016-05-18T07:23:51.450Z,140
2016-05-18T07:24:51.094Z,140
2016-05-18T07:25:51.175Z,140
2016-05-18T07:26:51.209Z,140
2016-05-18T07:27:51.211Z,145
2016-05-18T07:28:51.464Z,145
2016-05-18T07:29:51.249Z,145
2016-05-18T07:30:51.267Z,145
2016-05-18T07:31:51.302Z,140
2016-05-18T07:32:51.194Z,140
2016-05-18T07:33:51.337Z,140
2016-05-18T07:34:51.387Z,140
2016-05-18T07:35:51.124Z,140
2016-05-18T07:36:51.377Z,140
2016-05-18T07:37:51.160Z,140
2016-05-18T07:38:51.288Z,140
2016-05-18T07:39:51.290Z,135
2016-05-18T07:40:51.388Z,130
2016-05-18T07:41:51.499Z,130
2016-05-18T07:42:51.643Z,125
2016-05-18T07:43:51.536Z,125
2016-05-18T07:44:51.789Z,125
2016-05-18T07:45:51.542Z,120
2016-05-18T07:46:51.607Z,120
2016-05-18T07:47:51.578Z,120
2016-05-18T07:48:51.628Z,120
2016-05-18T07:49:51.661Z,120
2016-05-18T07:50:51.695Z,125
2016-05-18T07:51:51.526Z,130
2016-05-18T07:52:51.747Z,130
2016-05-18T07:53:51.594Z,135
2016-05-18T07:54:51.456Z,135
2016-05-18T07:55:51.631Z,140
2016-05-18T07:56:51.789Z,140
2016-05-18T07:57:51.839Z,140
2016-05-18T07:58:51.841Z,140
2016-05-18T07:59:51.548Z,140
2016-05-18T08:00:51.911Z,140
2016-05-18T08:01:51.897Z,140
2016-05-18T08:02:51.916Z,140
2016-05-18T08:03:51.840Z,145
2016-05-18T08:04:51.999Z,145
2016-05-18T08:05:51.814Z,145
2016-05-18T08:06:52.020Z,145
2016-05-18T08:07:51.929Z,150
2016-05-18T08:08:52.229Z,150
2016-05-18T08:09:51.810Z,155
2016-05-18T08:10:51.812Z,155
2016-05-18T08:11:52.143Z,155
2016-05-18T08:12:52.223Z,150
2016-05-18T08:13:52.007Z,150
2016-05-18T08:14:52.026Z,150
2016-05-18T08:15:52.075Z,150
2016-05-18T08:16:52.078Z,145
2016-05-18T08:17:52.252Z,150
2016-05-18T08:18:52.286Z,155
2016-05-18T08:19:51.867Z,155
2016-05-18T08:20:52.026Z,150
2016-05-18T08:21:52.186Z,155
2016-05-18T08:22:52.095Z,150
2016-05-18T08:23:52.675Z,150
2016-05-18T08:24:52.365Z,150
2016-05-18T08:25:52.087Z,155
2016-05-18T08:26:52.417Z,155
2016-05-18T08:27:52.274Z,155
2016-05-18T08:28:52.508Z,155
2016-05-18T08:29:52.583Z,160
2016-05-18T08:30:52.628Z,160
2016-05-18T08:31:52.704Z,160
2016-05-18T08:32:52.648Z,160
2016-05-18T08:33:52.791Z,160
2016-05-18T08:34:52.842Z,160
2016-05-18T08:35:52.843Z,165
2016-05-18T08:36:52.753Z,160
2016-05-18T08:37:53.096Z,165
2016-05-18T08:38:53.182Z,165
2016-05-18T08:39:52.971Z,165
2016-05-18T08:40:53.010Z,165
2016-05-18T08:41:53.034Z,165
2016-05-18T08:42:52.901Z,165
2016-05-18T08:43:52.938Z,165
2016-05-18T08:44:53.114Z,165
2016-05-18T08:45:53.119Z,165
2016-05-18T08:46:53.156Z,170
2016-05-18T08:47:53.160Z,170
2016-05-18T08:48:53.023Z,175
2016-05-18T08:49:53.073Z,175
2016-05-18T08:50:53.248Z,175
2016-05-18T08:51:53.236Z,175
2016-05-18T08:52:53.520Z,175
2016-05-18T08:53:53.305Z,175
2016-05-18T08:54:53.401Z,175
2016-05-18T08:55:53.264Z,175
2016-05-18T08:56:53.219Z,180
2016-05-18T08:57:53.238Z,180
2016-05-18T08:58:53.427Z,180
2016-05-18T08:59:53.414Z,185
2016-05-18T09:00:53.324Z,185
2016-05-18T09:01:53.357Z,195
2016-05-18T09:02:53.688Z,190
2016-05-18T09:03:53.550Z,190
2016-05-18T09:04:53.647Z,195
2016-05-18T09:05:53.493Z,195
2016-05-18T09:06:53.715Z,195
2016-05-18T09:07:53.857Z,195
2016-05-18T09:08:53.517Z,200
2016-05-18T09:09:53.660Z,200
2016-05-18T09:10:53.554Z,205
2016-05-18T09:11:53.743Z,210
2016-05-18T09:12:53.449Z,210
2016-05-18T09:13:53.734Z,210
2016-05-18T09:14:53.626Z,210
2016-05-18T09:15:53.786Z,210
2016-05-18T09:16:53.804Z,210
2016-05-18T09:17:53.807Z,210
2016-05-18T09:18:53.825Z,210
2016-05-18T09:19:53.843Z,210
2016-05-18T09:20:53.877Z,210
2016-05-18T09:21:53.895Z,210
2016-05-18T09:22:54.008Z,210
2016-05-18T09:23:53.792Z,210
2016-05-18T09:24:53.966Z,210
2016-05-18T09:25:53.984Z,210
2016-05-18T09:26:53.847Z,210
2016-05-18T09:27:53.849Z,215
2016-05-18T09:28:53.883Z,215
2016-05-18T09:29:54.057Z,220
2016-05-18T09:30:53.935Z,225
2016-05-18T09:31:54.094Z,230
2016-05-18T09:32:53.972Z,235
2016-05-18T09:33:53.849Z,240
2016-05-18T09:34:54.212Z,250
2016-05-18T09:35:54.199Z,250
2016-05-18T09:36:54.201Z,255
2016-05-18T09:37:54.798Z,260
2016-05-18T09:38:54.316Z,260
2016-05-18T09:39:54.101Z,265
2016-05-18T09:40:54.165Z,265
2016-05-18T09:41:54.027Z,265
2016-05-18T09:42:54.186Z,270
2016-05-18T09:43:54.204Z,270
2016-05-18T09:44:54.410Z,275
2016-05-18T09:45:54.257Z,275
2016-05-18T09:46:54.447Z,275
2016-05-18T09:47:54.481Z,275
2016-05-18T09:48:54.281Z,280
2016-05-18T09:49:54.564Z,280
2016-05-18T09:50:54.567Z,280
2016-05-18T09:51:54.226Z,285
2016-05-18T09:52:54.464Z,280
2016-05-18T09:53:54.466Z,275
2016-05-18T09:54:54.641Z,275
2016-05-18T09:55:54.550Z,275
2016-05-18T09:56:54.709Z,275
2016-05-18T09:57:54.742Z,270
2016-05-18T09:58:54.620Z,270
2016-05-18T09:59:54.810Z,270
2016-05-18T10:00:54.610Z,270
2016-05-18T10:01:54.660Z,270
2016-05-18T10:02:54.850Z,275
2016-05-18T10:03:54.852Z,275
2016-05-18T10:04:54.699Z,275
2016-05-18T10:05:54.702Z,275
2016-05-18T10:06:54.891Z,270
2016-05-18T10:07:54.910Z,275
2016-05-18T10:08:55.116Z,270
2016-05-18T10:09:54.946Z,275
2016-05-18T10:10:54.980Z,270
2016-05-18T10:11:54.983Z,270
2016-05-18T10:12:55.032Z,275
2016-05-18T10:13:55.035Z,260
2016-05-18T10:14:55.070Z,270
2016-05-18T10:15:54.915Z,275
2016-05-18T10:16:55.106Z,265
2016-05-18T10:17:54.999Z,270
2016-05-18T10:18:55.002Z,270
2016-05-18T10:19:55.176Z,285
2016-05-18T10:20:54.742Z,255
2016-05-18T10:21:55.073Z,265
2016-05-18T10:22:55.075Z,245
2016-05-18T10:23:55.937Z,245
2016-05-18T10:24:55.128Z,250
2016-05-18T10:25:55.333Z,250
2016-05-18T10:26:55.180Z,275
2016-05-18T10:27:55.339Z,245
2016-05-18T10:28:55.388Z,265
2016-05-18T10:29:55.235Z,265
2016-05-18T10:30:55.425Z,265
2016-05-18T10:31:55.444Z,250
2016-05-18T10:32:55.305Z,260
2016-05-18T10:33:55.496Z,270
2016-05-18T10:34:55.530Z,280
2016-05-18T10:36:55.550Z,285
2016-05-18T10:37:55.552Z,280
2016-05-18T10:38:56.149Z,285
2016-05-18T10:39:55.465Z,290
2016-05-18T10:40:55.640Z,230
2016-05-18T10:41:55.518Z,290
2016-05-18T10:42:55.535Z,295
2016-05-18T10:43:55.726Z,290
2016-05-18T10:44:55.838Z,225
2016-05-18T10:45:55.824Z,220
2016-05-18T10:46:55.687Z,220
2016-05-18T10:47:55.924Z,220
2016-05-18T10:48:55.927Z,220
2016-05-18T10:49:55.710Z,225
2016-05-18T10:50:55.759Z,290
2016-05-18T10:51:55.920Z,290
2016-05-18T10:52:55.968Z,270
2016-05-18T10:53:55.628Z,230
2016-05-18T10:54:55.990Z,215
2016-05-18T10:55:55.961Z,215
2016-05-18T10:56:55.714Z,210
2016-05-18T10:57:55.873Z,210
2016-05-18T10:58:55.891Z,205
2016-05-18T10:59:55.894Z,205
2016-05-18T11:00:55.928Z,205
2016-05-18T11:01:55.650Z,205
2016-05-18T11:02:55.995Z,240
2016-05-18T11:03:55.983Z,265
2016-05-18T11:04:56.172Z,260
2016-05-18T11:05:56.050Z,235
2016-05-18T11:06:56.210Z,195
2016-05-18T11:07:56.228Z,190
2016-05-18T11:08:56.511Z,190
2016-05-18T11:09:56.263Z,190
2016-05-18T11:10:56.314Z,185
2016-05-18T11:11:56.176Z,180
2016-05-18T11:12:56.179Z,185
2016-05-18T11:13:56.385Z,185
2016-05-18T11:14:56.387Z,180
2016-05-18T11:15:56.404Z,185
2016-05-18T11:16:56.440Z,185
2016-05-18T11:17:56.457Z,180
2016-05-18T11:18:56.460Z,185
2016-05-18T11:19:56.337Z,185
2016-05-18T11:20:56.215Z,185
2016-05-18T11:21:56.375Z,190
2016-05-18T11:22:56.612Z,190
2016-05-18T11:23:56.489Z,195
2016-05-18T11:24:56.648Z,200
2016-05-18T11:25:56.401Z,200
2016-05-18T11:26:56.356Z,205
2016-05-18T11:27:56.360Z,210
2016-05-18T11:28:56.565Z,210
2016-05-18T11:29:56.739Z,210
2016-05-18T11:30:56.789Z,215
2016-05-18T11:31:56.823Z,215
2016-05-18T11:32:56.669Z,215
2016-05-18T11:33:56.797Z,215
2016-05-18T11:34:56.863Z,215
2016-05-18T11:35:56.725Z,215
2016-05-18T11:36:56.899Z,215
2016-05-18T11:37:56.933Z,215
2016-05-18T11:38:57.061Z,215
2016-05-18T11:39:56.829Z,220
2016-05-18T11:40:57.051Z,220
2016-05-18T11:41:57.007Z,220
2016-05-18T11:42:56.869Z,225
2016-05-18T11:43:57.043Z,225
2016-05-18T11:44:57.062Z,230
2016-05-18T11:45:56.907Z,235
2016-05-18T11:46:57.129Z,240
2016-05-18T11:47:56.960Z,245
2016-05-18T11:48:57.150Z,250
2016-05-18T11:49:57.013Z,250
2016-05-18T11:50:57.187Z,255
2016-05-18T11:51:57.048Z,260
2016-05-18T11:52:56.927Z,265
2016-05-18T11:53:57.382Z,265
2016-05-18T11:54:57.276Z,275
2016-05-18T11:55:57.309Z,275
2016-05-18T11:56:57.172Z,265
2016-05-18T11:57:57.190Z,255
2016-05-18T11:58:57.380Z,250
2016-05-18T11:59:57.227Z,245
2016-05-18T12:00:57.417Z,240
2016-05-18T12:01:57.138Z,235
2016-05-18T12:02:57.313Z,230
2016-05-18T12:03:57.503Z,225
2016-05-18T12:04:57.506Z,220
2016-05-18T12:05:57.539Z,220
2016-05-18T12:06:57.558Z,215
2016-05-18T12:07:57.577Z,215
2016-05-18T12:08:57.469Z,215
2016-05-18T12:09:57.613Z,210
2016-05-18T12:10:57.632Z,210
2016-05-18T12:11:57.713Z,210
2016-05-18T12:12:57.699Z,210
2016-05-18T12:13:57.718Z,215
2016-05-18T12:14:57.782Z,220
2016-05-18T12:15:57.770Z,230
2016-05-18T12:16:57.616Z,235
2016-05-18T12:17:57.900Z,240
2016-05-18T12:18:57.841Z,250
2016-05-18T12:20:02.702Z,260
2016-05-18T12:20:57.954Z,270
2016-05-18T12:21:57.958Z,280
2016-05-18T12:22:57.976Z,280
2016-05-18T12:23:58.244Z,290
2016-05-18T12:25:02.795Z,295
2016-05-18T12:25:57.875Z,300
2016-05-18T12:26:57.893Z,300
2016-05-18T12:27:57.864Z,295
2016-05-18T12:28:57.914Z,295
2016-05-18T12:29:57.761Z,290
2016-05-18T12:30:58.122Z,285
2016-05-18T12:31:58.156Z,285
2016-05-18T12:32:58.159Z,290
2016-05-18T12:33:58.146Z,280
2016-05-18T12:35:01.978Z,270
2016-05-18T12:35:58.105Z,265
2016-05-18T12:36:58.216Z,260
2016-05-18T12:37:58.267Z,255
2016-05-18T12:38:58.597Z,250
2016-05-18T12:40:01.224Z,240
2016-05-18T12:40:58.212Z,235
2016-05-18T12:41:58.371Z,230
2016-05-18T12:42:58.077Z,220
2016-05-18T12:43:58.407Z,220
2016-05-18T12:45:03.004Z,215
2016-05-18T12:45:58.444Z,210
2016-05-18T12:46:58.447Z,205
2016-05-18T12:47:58.481Z,200
2016-05-18T12:48:58.514Z,195
2016-05-18T12:50:05.190Z,195
2016-05-18T12:50:58.379Z,195
2016-05-18T12:51:58.585Z,195
2016-05-18T12:52:58.713Z,195
2016-05-18T12:53:58.715Z,200
2016-05-18T12:55:02.984Z,200
2016-05-18T12:55:58.674Z,200
2016-05-18T12:56:58.693Z,200
2016-05-18T12:57:58.554Z,200
2016-05-18T12:58:58.432Z,200
2016-05-18T12:59:58.763Z,195
2016-05-18T13:00:58.625Z,195
2016-05-18T13:01:58.659Z,190
2016-05-18T13:02:58.834Z,190
2016-05-18T13:03:58.852Z,185
2016-05-18T13:04:58.761Z,180
2016-05-18T13:05:58.983Z,175
2016-05-18T13:06:58.923Z,165
2016-05-18T13:07:58.785Z,160
2016-05-18T13:08:59.788Z,155
2016-05-18T13:10:04.197Z,145
2016-05-18T13:10:58.886Z,140
2016-05-18T13:11:59.124Z,130
2016-05-18T13:12:59.016Z,125
2016-05-18T13:13:58.926Z,120
2016-05-18T13:15:02.429Z,115
2016-05-18T13:15:58.869Z,110
2016-05-18T13:16:58.887Z,105
2016-05-18T13:17:59.046Z,105
2016-05-18T13:18:58.893Z,105
2016-05-18T13:19:59.238Z,100
2016-05-18T13:20:59.304Z,100
2016-05-18T13:21:59.291Z,95
2016-05-18T13:23:00.231Z,95
2016-05-18T13:24:00.718Z,90
2016-05-18T13:24:59.251Z,90
2016-05-18T13:25:59.864Z,95
2016-05-18T13:26:59.257Z,95
2016-05-18T13:27:59.401Z,100
2016-05-18T13:28:59.419Z,100
2016-05-18T13:30:02.890Z,100
2016-05-18T13:30:59.471Z,105
2016-05-18T13:31:59.334Z,105
2016-05-18T13:32:59.508Z,115
2016-05-18T13:33:59.542Z,120
2016-05-18T13:35:04.779Z,130
2016-05-18T13:35:59.407Z,135
2016-05-18T13:36:59.613Z,150
2016-05-18T13:37:59.600Z,160
2016-05-18T13:38:59.524Z,170
2016-05-18T13:40:05.058Z,190
2016-05-18T13:40:59.514Z,220
2016-05-18T13:41:59.719Z,220
2016-05-18T13:42:59.722Z,215
2016-05-18T13:43:59.741Z,215
2016-05-18T13:45:05.338Z,215
2016-05-18T13:45:59.793Z,210
2016-05-18T13:46:59.640Z,205
2016-05-18T13:47:59.814Z,200
2016-05-18T13:48:59.723Z,195
2016-05-18T13:49:59.898Z,190
2016-05-18T13:50:59.901Z,180
2016-05-18T13:51:59.949Z,175
2016-05-18T13:52:59.952Z,170
2016-05-18T13:54:00.189Z,165
2016-05-18T13:55:02.302Z,160
2016-05-18T13:55:59.867Z,150
2016-05-18T13:56:59.885Z,150
2016-05-18T13:58:00.044Z,145
2016-05-18T13:59:00.093Z,145
2016-05-18T14:00:04.878Z,145
2016-05-18T14:01:00.271Z,150
2016-05-18T14:01:59.883Z,150
2016-05-18T14:02:59.870Z,155
2016-05-18T14:04:00.123Z,160
2016-05-18T14:05:05.906Z,160
2016-05-18T14:06:00.097Z,160
2016-05-18T14:07:00.115Z,160
2016-05-18T14:08:00.681Z,160
2016-05-18T14:09:00.214Z,160